Time;durP1;ratioP1;P1;durP2;ratioP2;P2;SDS_P1;SDS_P2;PMS_P1;PMS_P2;Temp;Humidity;BMP_temperature;BMP_pressure;BME280_temperature;BME280_humidity;BME280_pressure;Samples;Min_cycle;Max_cycle;Signal;HPM_P1;HPM_P2
2022/05/16 00:01:53;;;;;;;11.05;3.60;;;;;;;13.48;57.53;101513.50;5096026;28;20067;-59
2022/05/16 00:04:24;;;;;;;10.07;3.28;;;;;;;13.46;57.53;101515.25;5096282;28;20087;-59
2022/05/16 00:06:51;;;;;;;10.40;4.03;;;;;;;13.46;57.42;101515.25;5095982;28;20060;-60
2022/05/16 00:09:19;;;;;;;7.70;3.95;;;;;;;13.46;57.46;101518.72;5095949;28;20059;-59
2022/05/16 00:11:56;;;;;;;7.72;4.20;;;;;;;13.43;57.54;101507.47;5090745;28;20057;-59
2022/05/16 00:14:25;;;;;;;8.07;4.22;;;;;;;13.41;57.40;101511.81;5095826;28;20056;-59
2022/05/16 00:16:54;;;;;;;9.18;4.95;;;;;;;13.35;57.38;101509.25;5095609;28;20066;-59
2022/05/16 00:19:28;;;;;;;12.45;4.82;;;;;;;13.32;57.56;101514.50;5106028;28;20052;-60
2022/05/16 00:21:59;;;;;;;10.10;3.85;;;;;;;13.25;57.57;101509.34;5098106;28;20379;-59
2022/05/16 00:24:34;;;;;;;7.93;3.53;;;;;;;13.22;57.76;101506.75;5115970;28;20138;-60
2022/05/16 00:27:01;;;;;;;;;;;;;;;13.13;58.23;101514.59;5116401;28;20476;-60
2022/05/16 00:29:31;;;;;;;10.65;4.28;;;;;;;13.17;58.02;101507.66;5114178;28;20520;-59
2022/05/16 00:31:59;;;;;;;13.27;5.00;;;;;;;13.17;58.11;101505.91;5100816;28;20185;-60
2022/05/16 00:34:49;;;;;;;12.43;5.93;;;;;;;13.12;57.96;101514.59;5095561;28;20066;-60
2022/05/16 00:37:17;;;;;;;10.70;4.15;;;;;;;13.09;58.22;101512.03;5095742;28;20052;-60
2022/05/16 00:39:45;;;;;;;9.48;4.00;;;;;;;13.06;58.23;101518.13;5094851;28;20059;-59
2022/05/16 00:42:14;;;;;;;12.10;4.38;;;;;;;13.07;58.31;101518.97;5110664;28;20054;-60
2022/05/16 00:44:43;;;;;;;11.63;4.80;;;;;;;13.04;58.30;101514.66;5102863;28;20063;-60
2022/05/16 00:47:14;;;;;;;13.77;5.32;;;;;;;13.02;58.53;101511.19;5095237;28;20390;-59
2022/05/16 00:49:46;;;;;;;7.80;3.50;;;;;;;13.01;57.96;101513.81;5094837;28;20114;-59
2022/05/16 00:52:21;;;;;;;9.07;3.95;;;;;;;12.96;58.26;101519.88;5095004;28;20052;-58
2022/05/16 00:54:54;;;;;;;13.90;4.60;;;;;;;12.93;58.41;101516.44;5094987;28;20056;-59
2022/05/16 00:57:23;;;;;;;13.00;4.78;;;;;;;12.91;58.26;101523.38;5095049;28;20117;-59
2022/05/16 00:59:55;;;;;;;10.85;4.28;;;;;;;12.86;58.37;101526.00;5094793;28;20505;-61
2022/05/16 01:05:10;;;;;;;10.95;4.50;;;;;;;12.74;58.23;101525.22;5032328;28;20065;-61
2022/05/16 01:07:47;;;;;;;8.10;4.18;;;;;;;12.71;58.36;101525.22;5080769;28;20128;-61
2022/05/16 01:10:21;;;;;;;10.50;3.70;;;;;;;12.66;58.45;101516.56;5074017;28;20044;-61
2022/05/16 01:12:55;;;;;;;11.50;4.50;;;;;;;12.60;58.60;101523.53;5085365;28;20457;-61
2022/05/16 01:15:36;;;;;;;10.57;5.05;;;;;;;12.55;58.54;101520.09;5094224;28;20482;-61
2022/05/16 01:18:08;;;;;;;11.45;5.00;;;;;;;12.51;58.78;101520.97;5094721;28;20101;-61
2022/05/16 01:20:57;;;;;;;9.73;3.83;;;;;;;12.46;58.51;101520.09;5094556;28;20143;-61
2022/05/16 01:23:41;;;;;;;10.40;4.20;;;;;;;12.39;58.79;101523.59;5093700;28;20536;-61
2022/05/16 01:26:15;;;;;;;9.73;3.83;;;;;;;12.34;59.11;101525.34;5094025;28;20047;-60
2022/05/16 01:28:45;;;;;;;8.63;3.58;;;;;;;12.35;59.09;101526.22;5094441;28;20097;-60
2022/05/16 01:31:13;;;;;;;11.82;4.32;;;;;;;12.33;59.33;101523.63;5094464;28;20129;-60
2022/05/16 01:33:41;;;;;;;6.90;3.13;;;;;;;12.33;59.43;101523.63;5094259;28;20047;-60
2022/05/16 01:36:11;;;;;;;8.60;3.08;;;;;;;12.31;59.44;101522.75;5093734;28;20052;-60
2022/05/16 01:38:46;;;;;;;9.73;3.33;;;;;;;12.29;59.22;101527.09;5094272;28;20043;-60
2022/05/16 01:41:23;;;;;;;6.88;3.33;;;;;;;12.23;59.38;101516.72;5102042;28;20059;-60
2022/05/16 01:44:00;;;;;;;9.80;3.83;;;;;;;12.19;59.79;101517.59;5114651;28;20047;-60
2022/05/16 01:46:29;;;;;;;11.20;4.30;;;;;;;12.20;59.37;101516.72;5098149;28;20089;-59
2022/05/16 01:48:58;;;;;;;12.90;4.22;;;;;;;12.19;59.39;101515.88;5093099;28;20052;-60
2022/05/16 01:51:28;;;;;;;11.80;4.75;;;;;;;12.18;59.15;101518.47;5093399;28;20052;-61
2022/05/16 01:54:05;;;;;;;7.38;3.85;;;;;;;12.15;59.69;101513.28;5093374;28;20453;-60
2022/05/16 01:56:31;;;;;;;9.10;3.97;;;;;;;12.13;59.47;101517.63;5093549;28;20052;-60
2022/05/16 01:59:01;;;;;;;8.07;3.47;;;;;;;12.12;59.71;101518.47;5093761;28;20044;-60
2022/05/16 02:01:31;;;;;;;9.40;4.45;;;;;;;12.14;59.82;101514.16;5093216;28;20459;-60
2022/05/16 02:04:00;;;;;;;11.85;4.20;;;;;;;12.12;59.91;101513.28;5089395;28;20064;-60
2022/05/16 02:06:28;;;;;;;10.65;3.65;;;;;;;12.09;59.94;101519.34;5071525;28;20059;-60
2022/05/16 02:08:57;;;;;;;8.65;3.83;;;;;;;12.07;59.85;101512.44;5071980;28;20063;-61
2022/05/16 02:11:39;;;;;;;9.73;4.03;;;;;;;12.03;59.78;101508.09;5086022;28;20134;-60
2022/05/16 02:14:08;;;;;;;8.18;3.70;;;;;;;12.02;60.05;101516.78;5093441;28;20048;-61
2022/05/16 02:16:34;;;;;;;7.35;3.28;;;;;;;11.99;59.62;101512.44;5093155;28;20052;-61
2022/05/16 02:19:04;;;;;;;10.05;4.10;;;;;;;11.95;59.93;101511.56;5093198;28;20056;-59
2022/05/16 02:27:07;;;;;;;10.02;4.00;;;;;;;11.86;60.36;101515.91;5092685;28;20058;-61
2022/05/16 02:29:35;;;;;;;6.88;3.03;;;;;;;11.84;60.38;101518.50;5092853;28;20054;-61
2022/05/16 02:32:06;;;;;;;7.32;2.47;;;;;;;11.81;60.47;101518.50;5093497;28;20047;-60
2022/05/16 02:34:36;;;;;;;7.30;3.10;;;;;;;11.79;60.49;101515.06;5093571;28;20051;-60
2022/05/16 02:37:06;;;;;;;8.07;3.45;;;;;;;11.75;60.41;101515.88;5093531;28;20062;-59
2022/05/16 02:39:38;;;;;;;5.57;2.70;;;;;;;11.71;60.24;101514.16;5093466;28;20044;-60
2022/05/16 02:42:11;;;;;;;8.50;3.13;;;;;;;11.68;60.37;101519.34;5097811;28;20075;-60
2022/05/16 02:44:42;;;;;;;9.32;2.85;;;;;;;11.66;61.07;101519.38;5093368;28;20052;-60
2022/05/16 02:47:15;;;;;;;6.63;3.00;;;;;;;11.68;60.86;101516.75;5093479;28;20063;-59
2022/05/16 02:49:44;;;;;;;12.07;3.25;;;;;;;11.67;60.26;101522.81;5092795;28;20052;-59
2022/05/16 02:52:14;;;;;;;11.43;3.15;;;;;;;11.64;60.64;101520.22;5093241;28;20062;-59
2022/05/16 02:54:42;;;;;;;5.53;2.40;;;;;;;11.60;60.60;101519.38;5092877;28;20537;-59
2022/05/16 02:57:23;;;;;;;8.82;2.80;;;;;;;11.60;60.73;101515.91;5092900;28;20456;-59
2022/05/16 02:59:53;;;;;;;8.05;2.60;;;;;;;11.57;60.95;101514.16;5091834;28;20127;-60
2022/05/16 03:02:20;;;;;;;6.43;2.60;;;;;;;11.59;60.85;101514.16;5087531;28;20047;-60
2022/05/16 03:04:49;;;;;;;5.95;2.20;;;;;;;11.58;60.90;101517.63;5092266;28;20052;-61
2022/05/16 03:07:17;;;;;;;6.18;2.63;;;;;;;11.59;60.82;101517.63;5093085;28;20052;-60
2022/05/16 03:09:49;;;;;;;6.85;2.65;;;;;;;11.60;60.36;101523.69;5092846;28;20090;-61
2022/05/16 03:12:19;;;;;;;7.65;3.20;;;;;;;11.59;60.29;101521.97;5086086;28;20055;-61
2022/05/16 03:14:46;;;;;;;10.35;3.92;;;;;;;11.57;60.37;101515.91;5077015;28;20048;-61
2022/05/16 03:17:14;;;;;;;7.22;3.80;;;;;;;11.56;60.53;101516.78;5092739;28;20058;-60
2022/05/16 03:19:44;;;;;;;8.75;3.65;;;;;;;11.55;60.54;101526.28;5092827;28;20059;-59
2022/05/16 03:22:15;;;;;;;9.23;4.45;;;;;;;11.54;60.56;101524.56;5092442;28;20652;-59
2022/05/16 03:24:43;;;;;;;7.68;3.92;;;;;;;11.54;60.75;101526.28;5092808;28;20163;-60
2022/05/16 03:27:14;;;;;;;9.75;4.75;;;;;;;11.50;60.52;101522.81;5092365;28;20048;-59
2022/05/16 03:29:51;;;;;;;9.23;4.00;;;;;;;11.54;60.76;101521.09;5092479;28;20132;-60
2022/05/16 03:32:21;;;;;;;8.68;3.47;;;;;;;11.56;60.37;101521.97;5092574;28;20547;-60
2022/05/16 03:34:57;;;;;;;10.30;3.92;;;;;;;11.60;60.71;101523.69;5092758;28;20052;-59
2022/05/16 03:37:26;;;;;;;6.40;3.45;;;;;;;11.66;60.92;101523.69;5092596;28;20071;-60
2022/05/16 03:42:38;;;;;;;6.80;3.70;;;;;;;11.84;60.28;101521.09;5112014;28;20059;-59
2022/05/16 03:45:13;;;;;;;8.45;3.30;;;;;;;11.95;60.39;101519.34;5112626;28;20048;-60
2022/05/16 03:47:43;;;;;;;7.70;3.42;;;;;;;12.07;60.38;101528.03;5113162;28;20052;-60
2022/05/16 03:50:15;;;;;;;8.70;3.55;;;;;;;12.22;60.14;101525.38;5112269;28;20052;-60
2022/05/16 03:52:45;;;;;;;11.45;3.50;;;;;;;12.39;59.85;101522.72;5113249;28;20052;-60
2022/05/16 03:55:22;;;;;;;10.13;4.03;;;;;;;12.56;59.59;101521.81;5113159;28;20044;-60
2022/05/16 03:57:50;;;;;;;6.28;3.83;;;;;;;12.74;59.19;101520.00;5079603;28;20049;-60
2022/05/16 04:00:32;;;;;;;8.07;3.85;;;;;;;12.87;58.79;101527.72;5078514;28;20055;-61
2022/05/16 04:03:02;;;;;;;7.13;3.63;;;;;;;13.04;58.46;101519.00;5092728;28;20048;-61
2022/05/16 04:05:30;;;;;;;14.55;3.97;;;;;;;13.21;58.46;101518.03;5092825;28;20048;-60
2022/05/16 04:08:00;;;;;;;10.60;3.78;;;;;;;13.41;57.89;101515.28;5092724;28;20052;-61
2022/05/16 04:10:28;;;;;;;15.60;4.20;;;;;;;13.62;57.31;101519.47;5091118;28;20135;-61
2022/05/16 04:12:57;;;;;;;8.02;3.20;;;;;;;13.78;56.95;101517.59;5092024;28;20676;-60
2022/05/16 04:15:29;;;;;;;12.57;3.17;;;;;;;13.90;56.47;101518.34;5092205;28;20072;-60
2022/05/16 04:18:03;;;;;;;11.85;3.70;;;;;;;14.09;56.19;101526.00;5093635;28;20051;-60
2022/05/16 04:20:31;;;;;;;12.40;4.00;;;;;;;14.28;55.89;101522.31;5095399;28;20127;-60
2022/05/16 04:23:02;;;;;;;31.02;4.25;;;;;;;14.44;55.39;101523.91;5096027;28;20062;-60
2022/05/16 04:25:29;;;;;;;25.30;5.03;;;;;;;14.58;55.10;101521.16;5095975;28;20083;-60
2022/05/16 04:27:59;;;;;;;7.90;3.38;;;;;;;14.78;54.88;101523.50;5095653;28;20135;-59
2022/05/16 04:30:29;;;;;;;10.25;3.20;;;;;;;14.99;54.77;101519.72;5096069;28;20087;-60
2022/05/16 04:32:57;;;;;;;12.73;3.80;;;;;;;15.18;54.47;101528.19;5096061;28;20048;-59
2022/05/16 04:35:25;;;;;;;9.35;3.53;;;;;;;15.37;54.18;101524.38;5095743;28;20060;-59
2022/05/16 04:37:55;;;;;;;8.30;3.47;;;;;;;15.55;53.86;101520.63;5096110;28;20055;-60
2022/05/16 04:40:23;;;;;;;7.70;3.60;;;;;;;15.73;53.60;101523.84;5096714;28;20067;-61
2022/05/16 04:42:51;;;;;;;7.30;3.10;;;;;;;15.92;52.86;101519.16;5116010;28;20051;-61
2022/05/16 04:45:22;;;;;;;7.28;3.45;;;;;;;16.10;52.50;101518.81;5115658;28;20368;-61
2022/05/16 04:47:53;;;;;;;6.05;2.28;;;;;;;16.27;51.79;101523.72;5111193;28;20065;-59
2022/05/16 04:50:31;;;;;;;4.28;1.90;;;;;;;16.50;50.65;101527.63;5115454;28;20075;-60
2022/05/16 04:53:02;;;;;;;9.13;3.47;;;;;;;16.72;49.39;101534.22;5102370;28;20105;-60
2022/05/16 04:55:30;;;;;;;7.32;1.83;;;;;;;16.91;48.50;101527.69;5075328;28;20533;-60
2022/05/16 04:58:01;;;;;;;8.57;1.92;;;;;;;17.11;48.08;101526.38;5075219;28;20062;-61
2022/05/16 05:00:31;;;;;;;10.38;1.58;;;;;;;17.32;47.29;101525.91;5082761;28;20465;-61
2022/05/16 05:03:15;;;;;;;5.05;1.50;;;;;;;17.52;46.68;101530.66;5095408;28;20048;-61
2022/05/16 05:05:45;;;;;;;8.98;1.67;;;;;;;17.71;46.26;101528.50;5095347;28;20097;-60
2022/05/16 05:08:13;;;;;;;13.82;1.65;;;;;;;17.89;46.00;101520.13;5095201;28;20052;-60
2022/05/16 05:16:15;;;;;;;7.55;1.73;;;;;;;18.23;44.80;101527.97;5094484;28;20531;-61
2022/05/16 05:18:48;;;;;;;11.07;2.45;;;;;;;18.31;44.51;101530.41;5095158;28;20056;-61
2022/05/16 05:21:18;;;;;;;10.15;1.80;;;;;;;18.41;44.42;101531.84;5095166;28;20095;-61
2022/05/16 05:23:48;;;;;;;6.85;1.58;;;;;;;18.52;44.18;101524.53;5085716;28;20048;-61
2022/05/16 05:26:16;;;;;;;4.60;1.55;;;;;;;18.67;43.59;101528.50;5090074;28;20128;-61
2022/05/16 05:31:28;;;;;;;8.93;1.40;;;;;;;18.98;42.51;101523.22;5088785;28;20062;-61
2022/05/16 05:34:01;;;;;;;2.88;1.40;;;;;;;19.06;42.47;101531.72;5094441;28;20044;-61
2022/05/16 05:36:31;;;;;;;8.10;1.60;;;;;;;19.18;42.09;101526.06;5094833;28;20048;-61
2022/05/16 05:39:07;;;;;;;3.63;1.25;;;;;;;19.20;42.05;101525.13;5094632;28;20085;-61
2022/05/16 05:41:35;;;;;;;5.13;1.08;;;;;;;19.15;41.78;101521.78;5105095;28;20054;-60
2022/05/16 05:44:02;;;;;;;4.45;1.23;;;;;;;19.08;41.74;101535.16;5114723;28;20632;-61
2022/05/16 05:46:35;;;;;;;5.38;1.10;;;;;;;18.95;41.71;101524.16;5100320;28;20055;-60
2022/05/16 05:49:06;;;;;;;5.95;1.40;;;;;;;18.83;41.76;101525.41;5093427;28;20449;-61
2022/05/16 05:51:37;;;;;;;5.97;1.13;;;;;;;18.69;41.99;101524.94;5093850;28;20056;-61
2022/05/16 05:54:08;;;;;;;9.05;1.70;;;;;;;18.59;42.40;101528.69;5092124;28;20132;-61
2022/05/16 05:56:39;;;;;;;3.83;1.23;;;;;;;18.50;42.49;101526.34;5094442;28;20109;-60
2022/05/16 05:59:07;;;;;;;8.05;1.92;;;;;;;18.40;42.62;101524.88;5094379;28;20105;-61
2022/05/16 06:01:34;;;;;;;5.25;1.88;;;;;;;18.38;42.88;101521.44;5090324;28;20040;-61
2022/05/16 06:04:03;;;;;;;15.60;2.47;;;;;;;18.39;43.00;101517.91;5087592;28;20059;-61
2022/05/16 06:06:31;;;;;;;8.07;2.05;;;;;;;18.40;42.93;101520.50;5086427;28;20041;-61
2022/05/16 06:08:59;;;;;;;10.27;1.90;;;;;;;18.36;43.07;101523.25;5089716;28;20048;-59
2022/05/16 06:11:28;;;;;;;8.43;2.17;;;;;;;18.34;43.14;101525.06;5089730;28;20093;-59
2022/05/16 06:13:58;;;;;;;6.10;1.70;;;;;;;18.29;43.39;101523.44;5089811;28;20044;-57
2022/05/16 06:16:25;;;;;;;6.15;1.70;;;;;;;18.27;43.28;101522.59;5087405;28;20051;-60
2022/05/16 06:18:53;;;;;;;5.00;1.75;;;;;;;18.22;43.56;101521.88;5088239;28;20078;-61
2022/05/16 06:21:23;;;;;;;7.07;1.67;;;;;;;18.19;43.52;101521.06;5092661;28;20066;-62
2022/05/16 06:23:56;;;;;;;12.13;2.35;;;;;;;18.13;43.52;101516.84;5091741;28;20452;-60
2022/05/16 06:26:22;;;;;;;4.78;1.80;;;;;;;18.08;43.57;101521.38;5087308;28;20051;-60
2022/05/16 06:28:50;;;;;;;5.28;1.10;;;;;;;18.03;43.72;101515.38;5083381;28;20060;-61
2022/05/16 06:31:19;;;;;;;7.53;2.00;;;;;;;18.00;43.85;101520.72;5085751;28;20151;-62
2022/05/16 06:33:48;;;;;;;5.63;2.13;;;;;;;17.95;43.97;101528.72;5098542;28;20252;-61
2022/05/16 06:36:18;;;;;;;7.55;1.92;;;;;;;17.92;44.07;101517.44;5105464;28;20058;-59
2022/05/16 06:38:48;;;;;;;10.20;1.70;;;;;;;17.88;44.14;101521.91;5092514;28;20094;-58
2022/05/16 06:41:19;;;;;;;7.95;2.42;;;;;;;17.87;44.42;101527.19;5100808;28;20055;-59
2022/05/16 06:43:46;;;;;;;4.38;1.33;;;;;;;17.82;44.31;101515.97;5096652;28;20122;-58
2022/05/16 06:46:16;;;;;;;7.35;1.45;;;;;;;17.80;44.27;101528.25;5101128;28;20044;-58
2022/05/16 06:48:47;;;;;;;5.22;1.23;;;;;;;17.79;44.28;101521.28;5101805;28;20055;-59
2022/05/16 06:51:16;;;;;;;5.57;1.33;;;;;;;17.79;44.20;101510.78;5097359;28;20048;-60
2022/05/16 06:53:46;;;;;;;8.63;1.45;;;;;;;17.77;44.16;101515.22;5109648;28;20054;-60
2022/05/16 06:56:30;;;;;;;3.17;1.25;;;;;;;17.74;43.88;101512.69;5099508;28;20050;-59
2022/05/16 06:58:57;;;;;;;8.70;1.77;;;;;;;17.71;43.97;101513.63;5100260;28;20048;-61
2022/05/16 07:01:27;;;;;;;5.32;1.50;;;;;;;17.69;44.26;101511.91;5088145;28;20047;-60
2022/05/16 07:03:56;;;;;;;4.75;1.67;;;;;;;17.70;44.55;101522.38;5108499;28;20051;-61
2022/05/16 07:06:26;;;;;;;4.90;1.48;;;;;;;17.71;44.74;101520.63;5100805;28;20047;-59
2022/05/16 07:09:03;;;;;;;2.38;1.40;;;;;;;17.72;44.80;101519.72;5099369;28;20143;-60
2022/05/16 07:11:33;;;;;;;4.43;1.20;;;;;;;17.71;44.79;101528.50;5108294;28;20112;-61
2022/05/16 07:14:01;;;;;;;3.55;1.42;;;;;;;17.70;44.86;101535.50;5098005;28;20426;-60
2022/05/16 07:16:35;;;;;;;8.57;1.80;;;;;;;17.73;45.00;101539.78;5103218;28;20048;-60
2022/05/16 07:19:06;;;;;;;3.53;1.25;;;;;;;17.73;45.17;101527.53;5099078;28;20055;-59
2022/05/16 07:21:38;;;;;;;3.90;1.30;;;;;;;17.76;45.32;101526.59;5106274;28;20460;-60
2022/05/16 07:24:08;;;;;;;5.18;1.35;;;;;;;17.78;45.70;101524.81;5078867;28;20521;-59
2022/05/16 07:29:27;;;;;;;6.78;1.50;;;;;;;17.83;45.61;101538.66;5085492;28;20053;-61
2022/05/16 07:31:55;;;;;;;7.78;1.42;;;;;;;17.88;45.35;101536.78;5095188;28;20081;-59
2022/05/16 07:34:22;;;;;;;4.50;1.35;;;;;;;17.91;45.31;101528.81;5104504;28;20044;-58
2022/05/16 07:36:49;;;;;;;5.18;1.35;;;;;;;17.93;45.22;101535.75;5104201;28;20608;-55
2022/05/16 07:39:19;;;;;;;5.43;1.25;;;;;;;17.92;44.82;101538.41;5097036;28;20062;-57
2022/05/16 07:41:52;;;;;;;36.30;3.88;;;;;;;17.95;45.20;101538.34;5096086;28;20062;-57
2022/05/16 07:44:21;;;;;;;7.18;1.30;;;;;;;17.98;44.57;101538.25;5112041;28;20134;-57
2022/05/16 07:46:52;;;;;;;3.67;1.23;;;;;;;18.03;44.46;101544.25;5100531;28;20060;-59
2022/05/16 07:49:22;;;;;;;8.38;1.20;;;;;;;18.07;44.72;101537.16;5082528;28;20060;-59
2022/05/16 07:51:51;;;;;;;7.70;1.58;;;;;;;18.32;44.18;101540.00;5071643;28;20493;-58
2022/05/16 07:54:21;;;;;;;18.05;2.67;;;;;;;18.58;43.51;101540.97;5090730;28;20702;-58
2022/05/16 07:56:56;;;;;;;2.30;0.98;;;;;;;18.75;42.76;101532.66;5104724;28;20135;-59
2022/05/16 07:59:22;;;;;;;3.22;0.98;;;;;;;18.88;42.20;101544.50;5112583;28;20523;-59
2022/05/16 08:01:50;;;;;;;3.95;0.90;;;;;;;18.99;41.69;101540.69;5098072;28;20039;-63
2022/05/16 08:05:00;;;;;;;10.90;1.27;;;;;;;19.06;41.56;101536.97;5085883;28;20048;-58
2022/05/16 08:10:35;;;;;;;3.50;1.20;;;;;;;19.29;41.35;101539.75;5105423;28;20065;-59
2022/05/16 08:13:11;;;;;;;4.55;1.35;;;;;;;19.58;41.05;101545.88;5088861;28;20110;-58
2022/05/16 08:15:48;;;;;;;3.75;1.30;;;;;;;19.86;40.44;101536.16;5096347;28;20376;-58
2022/05/16 08:18:18;;;;;;;2.85;1.05;;;;;;;20.21;39.97;101547.22;5107971;28;20047;-58
2022/05/16 08:20:50;;;;;;;2.90;0.88;;;;;;;20.47;39.53;101541.94;5099919;28;20069;-60
2022/05/16 08:23:22;;;;;;;4.93;1.00;;;;;;;20.83;38.78;101541.50;5099010;28;20058;-59
2022/05/16 08:25:51;;;;;;;6.60;1.42;;;;;;;21.16;38.26;101539.31;5083483;28;20524;-58
2022/05/16 08:28:30;;;;;;;5.05;1.13;;;;;;;21.49;37.24;101532.72;5094716;28;20048;-58
2022/05/16 08:31:00;;;;;;;8.25;1.50;;;;;;;21.86;36.40;101525.94;5102436;28;20127;-61
2022/05/16 08:33:30;;;;;;;6.32;1.00;;;;;;;22.19;35.88;101529.75;5110488;28;20048;-57
2022/05/16 08:41:33;;;;;;;3.20;1.10;;;;;;;22.98;33.92;101530.59;5105507;28;20116;-61
2022/05/16 08:44:14;;;;;;;5.00;0.85;;;;;;;23.07;33.05;101524.88;5100169;28;20425;-59
2022/05/16 08:46:48;;;;;;;3.67;0.82;;;;;;;23.11;32.99;101525.59;5098310;28;20056;-60
2022/05/16 08:49:33;;;;;;;6.35;1.20;;;;;;;23.16;32.51;101535.00;5110292;28;20047;-60
2022/05/16 08:52:05;;;;;;;;;;;;;;;23.09;32.14;101523.00;5088197;28;20517;-61
2022/05/16 08:54:40;;;;;;;4.40;1.10;;;;;;;23.08;33.22;101531.88;5105580;28;19982;-61
2022/05/16 08:57:15;;;;;;;2.70;0.90;;;;;;;23.12;33.21;101533.44;5095996;28;20048;-61
2022/05/16 09:00:04;;;;;;;7.35;1.50;;;;;;;23.15;33.37;101528.00;5095142;28;20695;-60
2022/05/16 09:02:33;;;;;;;2.75;1.00;;;;;;;23.17;33.63;101520.84;5104564;28;20063;-62
2022/05/16 09:05:07;;;;;;;3.85;0.90;;;;;;;23.19;33.17;101519.00;5101135;28;20052;-62
2022/05/16 09:07:44;;;;;;;3.95;1.00;;;;;;;23.22;33.13;101517.97;5111791;28;20052;-62
2022/05/16 09:10:15;;;;;;;2.33;1.00;;;;;;;23.25;33.17;101521.34;5101504;28;20043;-60
2022/05/16 09:12:52;;;;;;;9.85;1.38;;;;;;;23.25;32.92;101518.69;5102841;28;20073;-60
2022/05/16 09:15:42;;;;;;;9.95;2.03;;;;;;;23.19;32.87;101524.28;5101106;28;20162;-59
2022/05/16 09:18:26;;;;;;;8.93;1.67;;;;;;;23.08;33.47;101523.09;5077472;28;20044;-58
2022/05/16 09:21:14;;;;;;;5.15;1.38;;;;;;;22.99;33.89;101521.75;5104237;28;20063;-59
2022/05/16 09:24:04;;;;;;;3.03;1.15;;;;;;;22.91;33.42;101527.41;5098060;28;20108;-59
2022/05/16 09:26:52;;;;;;;4.30;1.30;;;;;;;22.86;33.46;101528.50;5105068;28;20599;-59
2022/05/16 09:29:28;;;;;;;4.78;1.42;;;;;;;22.80;33.99;101526.13;5110896;28;20105;-60
2022/05/16 09:32:10;;;;;;;5.63;1.25;;;;;;;22.80;33.57;101523.47;5092242;28;20089;-60
2022/05/16 09:34:40;;;;;;;2.30;0.80;;;;;;;22.83;33.15;101529.50;5113816;28;20039;-60
2022/05/16 09:37:08;;;;;;;2.67;1.15;;;;;;;22.90;32.87;101523.03;5099961;28;20183;-60
2022/05/16 09:39:35;;;;;;;2.85;0.95;;;;;;;22.98;32.79;101525.31;5090676;28;20055;-60
2022/05/16 09:42:12;;;;;;;42.33;3.63;;;;;;;23.06;32.92;101528.44;5103502;28;20139;-60
2022/05/16 09:44:47;;;;;;;9.60;1.48;;;;;;;23.10;32.65;101527.38;5101634;28;20096;-59
2022/05/16 09:47:59;;;;;;;6.05;1.10;;;;;;;23.09;32.44;101533.59;5098989;28;20052;-58
2022/05/16 09:50:31;;;;;;;5.05;1.17;;;;;;;23.07;33.06;101530.16;5090800;28;20056;-59
2022/05/16 09:53:15;;;;;;;3.60;2.03;;;;;;;23.05;32.65;101526.75;5100722;28;20044;-59
2022/05/16 09:55:49;;;;;;;2.93;1.17;;;;;;;22.99;33.05;101527.03;5109795;28;20426;-59
2022/05/16 09:58:20;;;;;;;3.03;1.30;;;;;;;22.95;32.84;101526.31;5101657;28;20063;-59
2022/05/16 10:00:58;;;;;;;6.03;1.10;;;;;;;22.95;32.92;101528.09;5099417;28;20059;-59
2022/05/16 10:03:49;;;;;;;4.85;1.15;;;;;;;22.89;32.69;101525.72;5110667;28;20144;-59
2022/05/16 10:06:31;;;;;;;4.28;1.05;;;;;;;22.83;32.98;101520.72;5101005;28;20160;-59
2022/05/16 10:09:04;;;;;;;6.75;2.10;;;;;;;22.76;33.53;101529.84;5100066;28;20056;-59
2022/05/16 10:11:42;;;;;;;4.28;1.30;;;;;;;22.54;33.61;101522.91;5106058;28;20072;-60
2022/05/16 10:14:19;;;;;;;5.38;1.77;;;;;;;22.25;34.03;101533.91;5100192;28;20039;-60
2022/05/16 10:16:56;;;;;;;5.88;1.60;;;;;;;21.94;34.77;101524.66;5103199;28;20058;-59
2022/05/16 10:19:31;;;;;;;3.97;1.52;;;;;;;21.80;34.71;101521.75;5096597;28;20525;-58
2022/05/16 10:22:02;;;;;;;3.92;1.25;;;;;;;21.78;35.08;101522.72;5097936;28;20067;-59
2022/05/16 10:24:34;;;;;;;4.72;1.52;;;;;;;21.76;34.82;101528.06;5104263;28;20121;-57
2022/05/16 10:27:07;;;;;;;5.72;1.83;;;;;;;21.79;35.06;101527.94;5106614;28;20063;-57
2022/05/16 10:29:42;;;;;;;5.25;1.75;;;;;;;21.74;35.01;101532.56;5094765;28;20036;-58
2022/05/16 10:35:20;;;;;;;6.68;1.77;;;;;;;21.32;35.79;101522.84;5093350;28;20067;-61
2022/05/16 10:37:55;;;;;;;4.63;1.55;;;;;;;21.27;36.01;101527.44;5097545;28;20059;-59
2022/05/16 10:40:30;;;;;;;5.70;1.80;;;;;;;21.29;36.30;101525.59;5094232;28;20048;-59
2022/05/16 10:43:19;;;;;;;10.33;2.27;;;;;;;21.37;36.72;101522.69;5085738;28;20391;-58
2022/05/16 10:45:52;;;;;;;5.68;1.40;;;;;;;21.47;35.66;101528.44;5090977;28;20289;-61
2022/05/16 10:48:34;;;;;;;5.20;1.80;;;;;;;21.44;35.37;101518.00;5094184;28;20047;-62
2022/05/16 10:51:14;;;;;;;6.20;1.70;;;;;;;21.46;35.76;101526.72;5096480;28;20131;-63
2022/05/16 10:53:53;;;;;;;7.05;1.77;;;;;;;21.53;36.09;101512.34;5090622;28;20044;-61
2022/05/16 10:56:38;;;;;;;6.00;2.60;;;;;;;21.60;36.09;101509.41;5088796;28;20055;-59
2022/05/16 10:59:30;;;;;;;7.40;1.88;;;;;;;21.65;36.50;101514.47;5106649;28;20063;-61
2022/05/16 11:02:12;;;;;;;11.23;2.70;;;;;;;21.62;36.48;101501.41;5097215;28;20436;-60
2022/05/16 11:05:04;;;;;;;6.57;2.10;;;;;;;21.64;36.73;101510.97;5102595;28;20040;-61
2022/05/16 11:07:49;;;;;;;14.95;2.92;;;;;;;21.42;36.55;101511.03;5107997;28;20040;-59
2022/05/16 11:10:28;;;;;;;6.50;2.05;;;;;;;21.31;37.20;101507.94;5105459;28;20048;-61
2022/05/16 11:13:09;;;;;;;8.00;2.28;;;;;;;21.23;37.27;101509.19;5095047;28;20044;-61
2022/05/16 11:15:41;;;;;;;6.25;2.10;;;;;;;21.17;37.61;101515.53;5088687;28;20083;-60
2022/05/16 11:18:16;;;;;;;8.68;2.58;;;;;;;21.26;38.24;101515.19;5110334;28;20052;-61
2022/05/16 11:20:55;;;;;;;6.28;2.05;;;;;;;21.34;37.55;101518.41;5094016;28;20063;-63
2022/05/16 11:23:47;;;;;;;25.50;4.25;;;;;;;21.28;37.73;101517.75;5109646;28;20039;-61
2022/05/16 11:26:21;;;;;;;5.75;1.80;;;;;;;21.27;38.11;101506.34;5062549;28;20056;-60
2022/05/16 11:29:21;;;;;;;4.03;2.22;;;;;;;21.29;38.20;101509.78;5092171;28;20059;-60
2022/05/16 11:32:04;;;;;;;6.97;1.95;;;;;;;21.31;38.86;101513.22;5084822;28;20047;-61
2022/05/16 11:34:53;;;;;;;5.05;2.10;;;;;;;21.38;38.75;101509.44;5107702;28;20044;-59
2022/05/16 11:37:36;;;;;;;7.72;2.75;;;;;;;21.42;38.54;101511.03;5109343;28;20055;-57
2022/05/16 11:40:20;;;;;;;5.88;1.75;;;;;;;21.48;37.84;101514.34;5088393;28;20055;-61
2022/05/16 11:43:05;;;;;;;4.93;1.80;;;;;;;21.56;37.35;101522.78;5096103;28;20491;-59
2022/05/16 11:45:57;;;;;;;3.88;1.40;;;;;;;21.64;36.97;101516.25;5113207;28;20087;-59
2022/05/16 11:48:36;;;;;;;5.47;2.03;;;;;;;21.72;36.43;101521.22;5102133;28;20066;-59
2022/05/16 11:51:14;;;;;;;4.95;1.70;;;;;;;21.63;35.79;101516.31;5102324;28;20176;-60
2022/05/16 11:53:50;;;;;;;4.78;1.67;;;;;;;21.53;35.96;101515.00;5113136;28;20047;-62
2022/05/16 12:02:22;;;;;;;5.80;1.73;;;;;;;21.70;36.25;101504.59;5089568;28;20093;-63
2022/05/16 12:04:52;;;;;;;5.38;1.88;;;;;;;21.72;36.49;101502.75;5108799;28;20064;-61
2022/05/16 12:07:31;;;;;;;9.57;1.83;;;;;;;21.78;35.24;101502.47;5100293;28;20102;-61
2022/05/16 12:10:08;;;;;;;4.68;1.13;;;;;;;21.83;35.02;101497.00;5085297;28;20448;-61
2022/05/16 12:12:44;;;;;;;7.18;1.70;;;;;;;21.90;35.12;101496.69;5106046;28;20117;-61
2022/05/16 12:15:30;;;;;;;3.33;1.02;;;;;;;21.96;34.15;101496.44;5102476;28;20127;-62
2022/05/16 12:18:06;;;;;;;5.68;2.10;;;;;;;21.99;33.71;101496.28;5085397;28;20051;-63
2022/05/16 12:21:03;;;;;;;46.22;5.10;;;;;;;21.91;33.87;101503.69;5106471;28;20052;-64
2022/05/16 12:24:10;;;;;;;5.25;1.83;;;;;;;21.87;33.31;101502.09;5111989;28;20468;-63
2022/05/16 12:27:17;;;;;;;5.95;1.52;;;;;;;21.79;33.45;101492.78;5098904;28;20063;-64
2022/05/16 12:30:14;;;;;;;7.25;1.73;;;;;;;21.73;34.01;101489.47;5098873;28;20044;-62
2022/05/16 12:32:56;;;;;;;5.25;1.67;;;;;;;21.70;33.91;101499.31;5107644;28;20043;-63
2022/05/16 12:35:48;;;;;;;4.35;1.60;;;;;;;21.67;34.18;101495.03;5098459;28;20048;-60